sensor_id;sensor_type;location;lat;lon;timestamp;pressure;altitude;pressure_sealevel;temperature;humidity
40954;BME280;26686;50.130;8.710;2023-06-26T00:03:30;100011.25;;;25.45;43.38
40954;BME280;26686;50.130;8.710;2023-06-26T00:08:33;99998.38;;;25.33;43.58
40954;BME280;26686;50.130;8.710;2023-06-26T00:13:34;99996.09;;;25.30;43.89
40954;BME280;26686;50.130;8.710;2023-06-26T00:18:35;99997.78;;;25.24;43.89
40954;BME280;26686;50.130;8.710;2023-06-26T00:23:37;99997.44;;;25.21;44.57
40954;BME280;26686;50.130;8.710;2023-06-26T00:28:40;99995.63;;;25.15;44.40
40954;BME280;26686;50.130;8.710;2023-06-26T00:33:42;99991.28;;;25.07;45.03
40954;BME280;26686;50.130;8.710;2023-06-26T00:38:43;99993.84;;;25.02;45.24
40954;BME280;26686;50.130;8.710;2023-06-26T00:43:45;99992.25;;;24.94;45.85
40954;BME280;26686;50.130;8.710;2023-06-26T00:48:48;99993.16;;;24.88;45.61
40954;BME280;26686;50.130;8.710;2023-06-26T00:53:49;99982.41;;;24.75;46.01
40954;BME280;26686;50.130;8.710;2023-06-26T00:58:51;99993.06;;;24.76;46.45
40954;BME280;26686;50.130;8.710;2023-06-26T01:03:53;99986.38;;;24.72;46.46
40954;BME280;26686;50.130;8.710;2023-06-26T01:08:55;99979.19;;;24.59;47.35
40954;BME280;26686;50.130;8.710;2023-06-26T01:13:57;99979.59;;;24.56;47.65
40954;BME280;26686;50.130;8.710;2023-06-26T01:19:02;99982.59;;;24.48;47.68
40954;BME280;26686;50.130;8.710;2023-06-26T01:24:18;99976.81;;;24.38;48.12
40954;BME280;26686;50.130;8.710;2023-06-26T01:29:28;99975.38;;;24.35;48.31
40954;BME280;26686;50.130;8.710;2023-06-26T01:34:32;99968.06;;;24.29;48.39
40954;BME280;26686;50.130;8.710;2023-06-26T01:39:34;99966.03;;;24.24;48.58
40954;BME280;26686;50.130;8.710;2023-06-26T01:44:42;99966.47;;;24.21;48.82
40954;BME280;26686;50.130;8.710;2023-06-26T01:50:00;99965.66;;;24.14;49.35
40954;BME280;26686;50.130;8.710;2023-06-26T01:55:28;99968.22;;;24.09;49.34
40954;BME280;26686;50.130;8.710;2023-06-26T02:00:34;99958.47;;;24.01;49.41
40954;BME280;26686;50.130;8.710;2023-06-26T02:05:37;99953.69;;;23.96;49.36
40954;BME280;26686;50.130;8.710;2023-06-26T02:10:39;99956.19;;;23.91;49.72
40954;BME280;26686;50.130;8.710;2023-06-26T02:15:41;99948.28;;;23.83;50.04
40954;BME280;26686;50.130;8.710;2023-06-26T02:20:42;99960.19;;;23.82;50.10
40954;BME280;26686;50.130;8.710;2023-06-26T02:25:45;99953.38;;;23.73;50.34
40954;BME280;26686;50.130;8.710;2023-06-26T02:30:46;99960.91;;;23.71;50.66
40954;BME280;26686;50.130;8.710;2023-06-26T02:35:48;99965.09;;;23.67;50.29
40954;BME280;26686;50.130;8.710;2023-06-26T02:40:51;99957.59;;;23.62;51.03
40954;BME280;26686;50.130;8.710;2023-06-26T02:45:52;99965.97;;;23.54;50.97
40954;BME280;26686;50.130;8.710;2023-06-26T02:50:54;99964.34;;;23.46;51.41
40954;BME280;26686;50.130;8.710;2023-06-26T02:55:55;99959.13;;;23.44;51.42
40954;BME280;26686;50.130;8.710;2023-06-26T03:00:57;99962.50;;;23.40;51.77
40954;BME280;26686;50.130;8.710;2023-06-26T03:05:58;99956.88;;;23.35;51.71
40954;BME280;26686;50.130;8.710;2023-06-26T03:11:00;99948.75;;;23.28;52.24
40954;BME280;26686;50.130;8.710;2023-06-26T03:16:02;99956.94;;;23.21;52.59
40954;BME280;26686;50.130;8.710;2023-06-26T03:21:04;99948.38;;;23.18;52.50
40954;BME280;26686;50.130;8.710;2023-06-26T03:26:06;99942.34;;;23.09;52.75
40954;BME280;26686;50.130;8.710;2023-06-26T03:31:07;99942.50;;;23.07;52.90
40954;BME280;26686;50.130;8.710;2023-06-26T03:36:09;99945.66;;;23.04;52.79
40954;BME280;26686;50.130;8.710;2023-06-26T03:41:10;99939.66;;;22.95;53.48
40954;BME280;26686;50.130;8.710;2023-06-26T03:46:12;99942.38;;;22.95;54.20
40954;BME280;26686;50.130;8.710;2023-06-26T03:51:14;99944.47;;;22.87;54.06
40954;BME280;26686;50.130;8.710;2023-06-26T03:56:16;99938.59;;;22.83;54.82
40954;BME280;26686;50.130;8.710;2023-06-26T04:01:17;99946.13;;;22.81;54.60
40954;BME280;26686;50.130;8.710;2023-06-26T04:06:19;99949.88;;;22.80;55.38
40954;BME280;26686;50.130;8.710;2023-06-26T04:11:20;99952.00;;;22.78;55.77
40954;BME280;26686;50.130;8.710;2023-06-26T04:16:21;99961.59;;;22.74;55.71
40954;BME280;26686;50.130;8.710;2023-06-26T04:21:26;99949.06;;;22.66;55.00
40954;BME280;26686;50.130;8.710;2023-06-26T04:26:27;99959.94;;;22.66;55.51
40954;BME280;26686;50.130;8.710;2023-06-26T04:31:29;99955.56;;;22.58;55.59
40954;BME280;26686;50.130;8.710;2023-06-26T04:36:31;99953.06;;;22.57;55.68
40954;BME280;26686;50.130;8.710;2023-06-26T04:41:34;99956.19;;;22.54;56.77
40954;BME280;26686;50.130;8.710;2023-06-26T04:46:37;99960.38;;;22.56;56.60
40954;BME280;26686;50.130;8.710;2023-06-26T04:51:42;99949.09;;;22.53;56.11
40954;BME280;26686;50.130;8.710;2023-06-26T04:56:43;99965.38;;;22.59;56.83
40954;BME280;26686;50.130;8.710;2023-06-26T05:01:48;99957.25;;;22.59;56.57
40954;BME280;26686;50.130;8.710;2023-06-26T05:06:49;99950.34;;;22.57;56.48
40954;BME280;26686;50.130;8.710;2023-06-26T05:11:51;99954.09;;;22.63;57.06
40954;BME280;26686;50.130;8.710;2023-06-26T05:16:52;99953.03;;;22.64;56.58
40954;BME280;26686;50.130;8.710;2023-06-26T05:21:54;99957.00;;;22.68;56.33
40954;BME280;26686;50.130;8.710;2023-06-26T05:26:57;99956.38;;;22.79;55.84
40954;BME280;26686;50.130;8.710;2023-06-26T05:31:59;99965.31;;;22.86;55.66
40954;BME280;26686;50.130;8.710;2023-06-26T05:37:01;99950.72;;;22.94;54.09
40954;BME280;26686;50.130;8.710;2023-06-26T05:42:03;99952.38;;;23.02;53.55
40954;BME280;26686;50.130;8.710;2023-06-26T05:47:05;99959.44;;;23.03;52.86
40954;BME280;26686;50.130;8.710;2023-06-26T05:52:07;99950.47;;;23.09;52.55
40954;BME280;26686;50.130;8.710;2023-06-26T05:57:09;99956.50;;;23.18;52.22
40954;BME280;26686;50.130;8.710;2023-06-26T06:02:11;99963.34;;;23.34;51.69
40954;BME280;26686;50.130;8.710;2023-06-26T06:07:13;99954.34;;;23.40;51.51
40954;BME280;26686;50.130;8.710;2023-06-26T06:12:14;99945.97;;;23.48;51.27
40954;BME280;26686;50.130;8.710;2023-06-26T06:17:22;99950.91;;;23.64;51.14
40954;BME280;26686;50.130;8.710;2023-06-26T06:22:23;99960.03;;;23.77;51.12
40954;BME280;26686;50.130;8.710;2023-06-26T06:27:25;99957.88;;;23.92;51.04
40954;BME280;26686;50.130;8.710;2023-06-26T06:32:26;99940.88;;;24.04;50.04
40954;BME280;26686;50.130;8.710;2023-06-26T06:37:28;99950.00;;;24.16;49.06
40954;BME280;26686;50.130;8.710;2023-06-26T06:42:30;99947.63;;;24.26;48.99
40954;BME280;26686;50.130;8.710;2023-06-26T06:47:32;99935.84;;;24.32;49.23
40954;BME280;26686;50.130;8.710;2023-06-26T06:52:38;99939.50;;;24.45;48.90
40954;BME280;26686;50.130;8.710;2023-06-26T06:57:40;99945.88;;;24.57;48.57
40954;BME280;26686;50.130;8.710;2023-06-26T07:02:45;99927.06;;;24.56;48.13
40954;BME280;26686;50.130;8.710;2023-06-26T07:07:47;99948.06;;;24.74;48.18
40954;BME280;26686;50.130;8.710;2023-06-26T07:12:48;99941.44;;;24.88;47.32
40954;BME280;26686;50.130;8.710;2023-06-26T07:17:50;99944.16;;;24.88;46.77
40954;BME280;26686;50.130;8.710;2023-06-26T07:22:52;99944.94;;;24.95;46.55
40954;BME280;26686;50.130;8.710;2023-06-26T07:27:54;99934.19;;;25.00;46.58
40954;BME280;26686;50.130;8.710;2023-06-26T07:32:55;99941.06;;;25.21;45.68
40954;BME280;26686;50.130;8.710;2023-06-26T07:37:58;99948.28;;;25.34;46.18
40954;BME280;26686;50.130;8.710;2023-06-26T07:42:59;99947.31;;;25.59;45.85
40954;BME280;26686;50.130;8.710;2023-06-26T07:48:01;99949.09;;;25.84;45.11
40954;BME280;26686;50.130;8.710;2023-06-26T07:53:02;99940.34;;;25.93;44.86
40954;BME280;26686;50.130;8.710;2023-06-26T07:58:07;99936.16;;;26.09;45.07
40954;BME280;26686;50.130;8.710;2023-06-26T08:03:08;99918.25;;;26.14;44.05
40954;BME280;26686;50.130;8.710;2023-06-26T08:08:25;99934.25;;;26.10;42.95
40954;BME280;26686;50.130;8.710;2023-06-26T08:13:27;99923.00;;;26.06;43.03
40954;BME280;26686;50.130;8.710;2023-06-26T08:18:29;99930.63;;;26.40;43.47
40954;BME280;26686;50.130;8.710;2023-06-26T08:23:30;99927.28;;;26.50;41.86
40954;BME280;26686;50.130;8.710;2023-06-26T08:28:33;99926.47;;;26.49;42.24
40954;BME280;26686;50.130;8.710;2023-06-26T08:33:34;99937.06;;;26.69;41.98
40954;BME280;26686;50.130;8.710;2023-06-26T08:38:36;99929.81;;;26.87;41.97
40954;BME280;26686;50.130;8.710;2023-06-26T08:43:37;99931.25;;;26.89;41.71
40954;BME280;26686;50.130;8.710;2023-06-26T08:48:39;99944.44;;;26.80;41.49
40954;BME280;26686;50.130;8.710;2023-06-26T08:53:50;99947.00;;;26.99;41.33
40954;BME280;26686;50.130;8.710;2023-06-26T08:58:53;99943.66;;;27.21;41.22
40954;BME280;26686;50.130;8.710;2023-06-26T09:03:55;99950.16;;;27.43;41.27
40954;BME280;26686;50.130;8.710;2023-06-26T09:08:56;99948.88;;;27.75;41.17
40954;BME280;26686;50.130;8.710;2023-06-26T09:13:59;99947.16;;;27.85;41.03
40954;BME280;26686;50.130;8.710;2023-06-26T09:19:00;99942.84;;;27.90;40.69
40954;BME280;26686;50.130;8.710;2023-06-26T09:24:02;99944.25;;;28.21;40.69
40954;BME280;26686;50.130;8.710;2023-06-26T09:29:05;99941.84;;;28.42;39.86
40954;BME280;26686;50.130;8.710;2023-06-26T09:34:06;99947.81;;;28.55;40.30
40954;BME280;26686;50.130;8.710;2023-06-26T09:39:08;99951.44;;;28.95;39.55
40954;BME280;26686;50.130;8.710;2023-06-26T09:44:14;99962.41;;;29.17;39.22
40954;BME280;26686;50.130;8.710;2023-06-26T09:49:15;99953.03;;;29.13;38.94
40954;BME280;26686;50.130;8.710;2023-06-26T09:54:17;99959.56;;;29.51;38.03
40954;BME280;26686;50.130;8.710;2023-06-26T09:59:21;99962.38;;;29.56;38.01
40954;BME280;26686;50.130;8.710;2023-06-26T10:04:22;99955.28;;;29.60;37.43
40954;BME280;26686;50.130;8.710;2023-06-26T10:09:24;99960.53;;;29.40;38.23
40954;BME280;26686;50.130;8.710;2023-06-26T10:14:39;99961.59;;;29.83;38.49
40954;BME280;26686;50.130;8.710;2023-06-26T10:19:45;99962.41;;;30.11;37.84
40954;BME280;26686;50.130;8.710;2023-06-26T10:24:47;99977.47;;;29.81;38.34
40954;BME280;26686;50.130;8.710;2023-06-26T10:29:55;99978.44;;;29.70;38.29
40954;BME280;26686;50.130;8.710;2023-06-26T10:34:57;99969.91;;;29.44;38.94
40954;BME280;26686;50.130;8.710;2023-06-26T10:39:59;99963.97;;;29.52;38.95
40954;BME280;26686;50.130;8.710;2023-06-26T10:45:28;99969.63;;;29.68;38.57
40954;BME280;26686;50.130;8.710;2023-06-26T10:50:31;99953.28;;;29.78;38.96
40954;BME280;26686;50.130;8.710;2023-06-26T10:55:32;99959.41;;;30.12;37.53
40954;BME280;26686;50.130;8.710;2023-06-26T11:00:34;99976.19;;;30.43;36.37
40954;BME280;26686;50.130;8.710;2023-06-26T11:05:35;99978.88;;;30.11;36.10
40954;BME280;26686;50.130;8.710;2023-06-26T11:10:51;99986.84;;;29.85;36.09
40954;BME280;26686;50.130;8.710;2023-06-26T11:15:55;99982.00;;;29.92;36.84
40954;BME280;26686;50.130;8.710;2023-06-26T11:21:05;99964.38;;;30.15;36.14
40954;BME280;26686;50.130;8.710;2023-06-26T11:26:14;99982.19;;;30.40;36.04
40954;BME280;26686;50.130;8.710;2023-06-26T11:31:26;99977.53;;;30.41;36.11
40954;BME280;26686;50.130;8.710;2023-06-26T11:36:28;99990.47;;;30.45;35.98
40954;BME280;26686;50.130;8.710;2023-06-26T11:41:31;99989.78;;;30.33;35.62
40954;BME280;26686;50.130;8.710;2023-06-26T11:46:37;99999.56;;;30.51;36.39
40954;BME280;26686;50.130;8.710;2023-06-26T11:51:38;99978.31;;;30.74;36.31
40954;BME280;26686;50.130;8.710;2023-06-26T11:56:41;99978.22;;;30.58;36.59
40954;BME280;26686;50.130;8.710;2023-06-26T12:01:43;99983.91;;;30.52;35.91
40954;BME280;26686;50.130;8.710;2023-06-26T12:06:51;99978.88;;;30.76;35.99
40954;BME280;26686;50.130;8.710;2023-06-26T12:11:55;99979.84;;;30.59;35.49
40954;BME280;26686;50.130;8.710;2023-06-26T12:17:04;99989.53;;;30.35;36.40
40954;BME280;26686;50.130;8.710;2023-06-26T12:22:06;99980.81;;;30.43;35.89
40954;BME280;26686;50.130;8.710;2023-06-26T12:27:10;99987.19;;;30.48;36.13
40954;BME280;26686;50.130;8.710;2023-06-26T12:32:11;99999.41;;;30.36;36.54
40954;BME280;26686;50.130;8.710;2023-06-26T12:37:13;99993.03;;;30.57;37.11
40954;BME280;26686;50.130;8.710;2023-06-26T12:42:19;99992.81;;;30.37;37.35
40954;BME280;26686;50.130;8.710;2023-06-26T12:47:26;99989.78;;;30.65;37.14
40954;BME280;26686;50.130;8.710;2023-06-26T12:52:29;99998.59;;;30.67;37.60
40954;BME280;26686;50.130;8.710;2023-06-26T12:57:30;99999.69;;;30.66;37.38
40954;BME280;26686;50.130;8.710;2023-06-26T13:02:31;100007.06;;;30.33;37.57
40954;BME280;26686;50.130;8.710;2023-06-26T13:07:33;100003.00;;;29.82;38.27
40954;BME280;26686;50.130;8.710;2023-06-26T13:12:35;100017.50;;;30.04;38.25
40954;BME280;26686;50.130;8.710;2023-06-26T13:17:36;100014.03;;;30.14;37.92
40954;BME280;26686;50.130;8.710;2023-06-26T13:22:38;100015.03;;;30.03;37.91
40954;BME280;26686;50.130;8.710;2023-06-26T13:27:39;100009.09;;;29.89;37.80
40954;BME280;26686;50.130;8.710;2023-06-26T13:32:41;99999.91;;;30.00;37.87
40954;BME280;26686;50.130;8.710;2023-06-26T13:37:42;100013.41;;;30.07;37.17
40954;BME280;26686;50.130;8.710;2023-06-26T13:42:44;100017.06;;;29.90;37.46
40954;BME280;26686;50.130;8.710;2023-06-26T13:47:46;100021.84;;;30.00;37.02
40954;BME280;26686;50.130;8.710;2023-06-26T13:52:47;100020.00;;;30.06;37.00
40954;BME280;26686;50.130;8.710;2023-06-26T13:57:49;100028.88;;;29.91;36.73
40954;BME280;26686;50.130;8.710;2023-06-26T14:02:50;100032.91;;;29.61;36.91
40954;BME280;26686;50.130;8.710;2023-06-26T14:07:52;100038.25;;;29.73;36.79
40954;BME280;26686;50.130;8.710;2023-06-26T14:12:57;100055.16;;;29.87;36.54
40954;BME280;26686;50.130;8.710;2023-06-26T14:17:58;100056.84;;;29.88;35.74
40954;BME280;26686;50.130;8.710;2023-06-26T14:23:00;100056.56;;;29.67;35.20
40954;BME280;26686;50.130;8.710;2023-06-26T14:28:01;100061.66;;;29.58;34.74
40954;BME280;26686;50.130;8.710;2023-06-26T14:33:03;100060.09;;;29.23;34.95
40954;BME280;26686;50.130;8.710;2023-06-26T14:38:04;100052.09;;;29.05;35.46
40954;BME280;26686;50.130;8.710;2023-06-26T14:43:06;100050.19;;;29.05;34.75
40954;BME280;26686;50.130;8.710;2023-06-26T14:48:08;100055.44;;;29.24;34.86
40954;BME280;26686;50.130;8.710;2023-06-26T14:53:10;100055.00;;;29.15;34.03
40954;BME280;26686;50.130;8.710;2023-06-26T14:58:11;100050.63;;;29.14;34.03
40954;BME280;26686;50.130;8.710;2023-06-26T15:03:13;100060.16;;;28.78;33.11
40954;BME280;26686;50.130;8.710;2023-06-26T15:08:14;100070.63;;;28.64;33.42
40954;BME280;26686;50.130;8.710;2023-06-26T15:13:16;100071.00;;;28.55;33.81
40954;BME280;26686;50.130;8.710;2023-06-26T15:18:17;100074.13;;;28.47;33.25
40954;BME280;26686;50.130;8.710;2023-06-26T15:23:19;100067.41;;;28.38;33.50
40954;BME280;26686;50.130;8.710;2023-06-26T15:28:20;100082.38;;;28.18;33.20
40954;BME280;26686;50.130;8.710;2023-06-26T15:33:22;100074.22;;;27.95;32.70
40954;BME280;26686;50.130;8.710;2023-06-26T15:38:24;100076.94;;;27.95;32.69
40954;BME280;26686;50.130;8.710;2023-06-26T15:43:25;100093.03;;;28.03;32.83
40954;BME280;26686;50.130;8.710;2023-06-26T15:48:27;100093.06;;;28.20;32.63
40954;BME280;26686;50.130;8.710;2023-06-26T15:53:37;100105.03;;;28.02;32.63
40954;BME280;26686;50.130;8.710;2023-06-26T15:58:39;100094.03;;;27.73;32.34
40954;BME280;26686;50.130;8.710;2023-06-26T16:03:46;100095.13;;;27.48;32.56
40954;BME280;26686;50.130;8.710;2023-06-26T16:08:48;100087.28;;;27.52;32.85
40954;BME280;26686;50.130;8.710;2023-06-26T16:13:50;100102.59;;;27.65;31.83
40954;BME280;26686;50.130;8.710;2023-06-26T16:18:53;100111.16;;;27.57;32.49
40954;BME280;26686;50.130;8.710;2023-06-26T16:23:54;100114.25;;;27.48;31.26
40954;BME280;26686;50.130;8.710;2023-06-26T16:28:56;100108.16;;;27.11;31.42
40954;BME280;26686;50.130;8.710;2023-06-26T16:33:57;100115.53;;;27.10;31.74
40954;BME280;26686;50.130;8.710;2023-06-26T16:38:59;100127.00;;;26.89;32.10
40954;BME280;26686;50.130;8.710;2023-06-26T16:44:02;100132.69;;;26.75;32.02
40954;BME280;26686;50.130;8.710;2023-06-26T16:49:03;100113.13;;;26.78;31.80
40954;BME280;26686;50.130;8.710;2023-06-26T16:54:05;100109.44;;;26.85;32.10
40954;BME280;26686;50.130;8.710;2023-06-26T16:59:07;100128.88;;;26.76;32.21
40954;BME280;26686;50.130;8.710;2023-06-26T17:04:08;100133.34;;;26.59;32.53
40954;BME280;26686;50.130;8.710;2023-06-26T17:09:09;100144.84;;;26.61;33.05
40954;BME280;26686;50.130;8.710;2023-06-26T17:14:11;100141.00;;;26.50;33.05
40954;BME280;26686;50.130;8.710;2023-06-26T17:19:12;100153.03;;;26.61;33.93
40954;BME280;26686;50.130;8.710;2023-06-26T17:24:14;100158.78;;;26.41;33.39
40954;BME280;26686;50.130;8.710;2023-06-26T17:29:15;100181.28;;;26.18;33.37
40954;BME280;26686;50.130;8.710;2023-06-26T17:34:17;100175.72;;;26.13;33.56
40954;BME280;26686;50.130;8.710;2023-06-26T17:39:18;100172.97;;;26.13;34.43
40954;BME280;26686;50.130;8.710;2023-06-26T17:44:20;100172.22;;;26.05;33.47
40954;BME280;26686;50.130;8.710;2023-06-26T17:49:23;100190.81;;;25.90;33.78
40954;BME280;26686;50.130;8.710;2023-06-26T17:54:25;100209.75;;;25.85;34.32
40954;BME280;26686;50.130;8.710;2023-06-26T17:59:27;100206.66;;;25.56;34.02
40954;BME280;26686;50.130;8.710;2023-06-26T18:04:29;100212.75;;;25.26;33.69
40954;BME280;26686;50.130;8.710;2023-06-26T18:09:30;100217.03;;;25.15;34.27
40954;BME280;26686;50.130;8.710;2023-06-26T18:14:32;100233.84;;;25.05;33.89
40954;BME280;26686;50.130;8.710;2023-06-26T18:19:33;100237.56;;;25.11;33.98
40954;BME280;26686;50.130;8.710;2023-06-26T18:24:34;100242.88;;;24.99;33.88
40954;BME280;26686;50.130;8.710;2023-06-26T18:29:37;100232.78;;;24.75;34.32
40954;BME280;26686;50.130;8.710;2023-06-26T18:34:38;100249.28;;;24.80;34.46
40954;BME280;26686;50.130;8.710;2023-06-26T18:39:40;100247.06;;;24.63;34.31
40954;BME280;26686;50.130;8.710;2023-06-26T18:44:42;100250.84;;;24.62;34.59
40954;BME280;26686;50.130;8.710;2023-06-26T18:49:43;100259.25;;;24.41;34.31
40954;BME280;26686;50.130;8.710;2023-06-26T18:54:44;100260.53;;;24.38;34.61
40954;BME280;26686;50.130;8.710;2023-06-26T18:59:46;100266.97;;;24.44;34.85
40954;BME280;26686;50.130;8.710;2023-06-26T19:04:47;100263.44;;;24.43;35.39
40954;BME280;26686;50.130;8.710;2023-06-26T19:09:49;100276.44;;;24.41;34.88
40954;BME280;26686;50.130;8.710;2023-06-26T19:14:50;100288.75;;;24.50;35.87
40954;BME280;26686;50.130;8.710;2023-06-26T19:19:52;100292.28;;;24.51;35.56
40954;BME280;26686;50.130;8.710;2023-06-26T19:24:54;100299.91;;;24.22;35.85
40954;BME280;26686;50.130;8.710;2023-06-26T19:29:55;100302.03;;;24.07;36.03
40954;BME280;26686;50.130;8.710;2023-06-26T19:34:56;100304.09;;;24.18;35.95
40954;BME280;26686;50.130;8.710;2023-06-26T19:39:58;100311.41;;;24.11;36.06
40954;BME280;26686;50.130;8.710;2023-06-26T19:45:00;100329.22;;;24.07;35.96
40954;BME280;26686;50.130;8.710;2023-06-26T19:50:02;100332.75;;;23.74;36.60
40954;BME280;26686;50.130;8.710;2023-06-26T19:55:04;100337.56;;;23.85;36.97
40954;BME280;26686;50.130;8.710;2023-06-26T20:00:06;100341.75;;;23.81;36.50
40954;BME280;26686;50.130;8.710;2023-06-26T20:05:09;100345.50;;;23.67;36.20
40954;BME280;26686;50.130;8.710;2023-06-26T20:10:12;100343.81;;;23.79;36.37
40954;BME280;26686;50.130;8.710;2023-06-26T20:15:13;100346.53;;;23.65;36.04
40954;BME280;26686;50.130;8.710;2023-06-26T20:20:15;100361.34;;;23.56;36.09
40954;BME280;26686;50.130;8.710;2023-06-26T20:25:16;100366.75;;;23.43;36.50
40954;BME280;26686;50.130;8.710;2023-06-26T20:30:17;100381.41;;;23.55;36.47
40954;BME280;26686;50.130;8.710;2023-06-26T20:35:19;100370.75;;;23.54;36.95
40954;BME280;26686;50.130;8.710;2023-06-26T20:40:21;100389.38;;;23.63;36.64
40954;BME280;26686;50.130;8.710;2023-06-26T20:45:23;100395.41;;;23.45;36.85
40954;BME280;26686;50.130;8.710;2023-06-26T20:50:27;100388.06;;;23.46;36.57
40954;BME280;26686;50.130;8.710;2023-06-26T20:55:28;100385.31;;;23.33;37.48
40954;BME280;26686;50.130;8.710;2023-06-26T21:00:30;100382.84;;;23.44;37.25
40954;BME280;26686;50.130;8.710;2023-06-26T21:05:31;100385.34;;;23.46;36.92
40954;BME280;26686;50.130;8.710;2023-06-26T21:10:32;100383.47;;;23.40;37.37
40954;BME280;26686;50.130;8.710;2023-06-26T21:15:34;100386.75;;;23.22;37.45
40954;BME280;26686;50.130;8.710;2023-06-26T21:20:35;100395.41;;;23.04;37.49
40954;BME280;26686;50.130;8.710;2023-06-26T21:25:37;100397.53;;;23.08;37.72
40954;BME280;26686;50.130;8.710;2023-06-26T21:30:39;100415.56;;;22.81;37.81
40954;BME280;26686;50.130;8.710;2023-06-26T21:35:41;100413.25;;;22.78;39.15
40954;BME280;26686;50.130;8.710;2023-06-26T21:40:45;100410.63;;;22.98;38.37
40954;BME280;26686;50.130;8.710;2023-06-26T21:45:48;100423.97;;;22.93;37.36
40954;BME280;26686;50.130;8.710;2023-06-26T21:50:49;100436.47;;;22.87;38.09
40954;BME280;26686;50.130;8.710;2023-06-26T21:55:51;100445.00;;;22.84;38.46
40954;BME280;26686;50.130;8.710;2023-06-26T22:00:52;100438.59;;;22.64;38.17
40954;BME280;26686;50.130;8.710;2023-06-26T22:05:56;100451.84;;;22.73;37.99
40954;BME280;26686;50.130;8.710;2023-06-26T22:10:57;100453.16;;;22.84;38.05
40954;BME280;26686;50.130;8.710;2023-06-26T22:15:59;100454.44;;;22.88;38.76
40954;BME280;26686;50.130;8.710;2023-06-26T22:21:00;100456.09;;;22.89;38.07
40954;BME280;26686;50.130;8.710;2023-06-26T22:26:02;100457.56;;;22.85;38.65
40954;BME280;26686;50.130;8.710;2023-06-26T22:31:04;100466.72;;;22.84;38.54
40954;BME280;26686;50.130;8.710;2023-06-26T22:36:05;100464.94;;;22.70;38.79
40954;BME280;26686;50.130;8.710;2023-06-26T22:41:07;100474.84;;;22.77;38.91
40954;BME280;26686;50.130;8.710;2023-06-26T22:51:10;100468.31;;;22.72;38.88
40954;BME280;26686;50.130;8.710;2023-06-26T22:56:11;100473.44;;;22.60;38.88
40954;BME280;26686;50.130;8.710;2023-06-26T23:01:13;100481.16;;;22.56;38.45
40954;BME280;26686;50.130;8.710;2023-06-26T23:06:15;100474.97;;;22.41;38.55
40954;BME280;26686;50.130;8.710;2023-06-26T23:11:22;100464.50;;;22.38;38.91
40954;BME280;26686;50.130;8.710;2023-06-26T23:16:24;100476.00;;;22.40;38.73
40954;BME280;26686;50.130;8.710;2023-06-26T23:21:25;100473.94;;;22.20;37.88
40954;BME280;26686;50.130;8.710;2023-06-26T23:26:27;100472.63;;;21.95;38.75
40954;BME280;26686;50.130;8.710;2023-06-26T23:31:32;100477.94;;;21.81;39.89
40954;BME280;26686;50.130;8.710;2023-06-26T23:36:33;100479.34;;;21.77;39.52
40954;BME280;26686;50.130;8.710;2023-06-26T23:41:39;100475.47;;;21.86;39.54
40954;BME280;26686;50.130;8.710;2023-06-26T23:46:41;100478.50;;;21.62;39.22
40954;BME280;26686;50.130;8.710;2023-06-26T23:51:42;100472.06;;;21.48;39.32
40954;BME280;26686;50.130;8.710;2023-06-26T23:56:45;100478.34;;;21.48;39.99
